sensor_id;sensor_type;location;lat;lon;timestamp;temperature;humidity
8338;DHT22;4206;48.634;9.516;2023-04-15T00:00:55;3.20;99.90
8338;DHT22;4206;48.634;9.516;2023-04-15T00:03:23;3.10;99.90
8338;DHT22;4206;48.634;9.516;2023-04-15T00:05:50;3.10;99.90
8338;DHT22;4206;48.634;9.516;2023-04-15T00:08:17;3.10;99.90
8338;DHT22;4206;48.634;9.516;2023-04-15T00:10:45;3.10;99.90
8338;DHT22;4206;48.634;9.516;2023-04-15T00:13:12;3.10;99.90
8338;DHT22;4206;48.634;9.516;2023-04-15T00:15:39;3.00;99.90
8338;DHT22;4206;48.634;9.516;2023-04-15T00:18:06;3.00;99.90
8338;DHT22;4206;48.634;9.516;2023-04-15T00:20:34;2.90;99.90
8338;DHT22;4206;48.634;9.516;2023-04-15T00:23:01;2.90;99.90
8338;DHT22;4206;48.634;9.516;2023-04-15T00:25:30;2.80;99.90
8338;DHT22;4206;48.634;9.516;2023-04-15T00:27:57;2.80;99.90
8338;DHT22;4206;48.634;9.516;2023-04-15T00:30:24;2.80;99.90
8338;DHT22;4206;48.634;9.516;2023-04-15T00:32:52;2.70;99.90
8338;DHT22;4206;48.634;9.516;2023-04-15T00:35:19;2.70;99.90
8338;DHT22;4206;48.634;9.516;2023-04-15T00:37:46;2.60;99.90
8338;DHT22;4206;48.634;9.516;2023-04-15T00:40:13;2.60;99.90
8338;DHT22;4206;48.634;9.516;2023-04-15T00:42:42;2.60;99.90
8338;DHT22;4206;48.634;9.516;2023-04-15T00:45:10;2.50;99.90
8338;DHT22;4206;48.634;9.516;2023-04-15T00:47:40;2.50;99.90
8338;DHT22;4206;48.634;9.516;2023-04-15T00:50:08;2.50;99.90
8338;DHT22;4206;48.634;9.516;2023-04-15T00:52:35;2.40;99.90
8338;DHT22;4206;48.634;9.516;2023-04-15T00:55:02;2.40;99.90
8338;DHT22;4206;48.634;9.516;2023-04-15T00:57:30;2.30;99.90
8338;DHT22;4206;48.634;9.516;2023-04-15T00:59:57;2.30;99.90
8338;DHT22;4206;48.634;9.516;2023-04-15T01:02:25;2.30;99.90
8338;DHT22;4206;48.634;9.516;2023-04-15T01:04:55;2.30;99.90
8338;DHT22;4206;48.634;9.516;2023-04-15T01:07:22;2.20;99.90
8338;DHT22;4206;48.634;9.516;2023-04-15T01:09:49;2.20;99.90
8338;DHT22;4206;48.634;9.516;2023-04-15T01:12:16;2.20;99.90
8338;DHT22;4206;48.634;9.516;2023-04-15T01:14:43;2.10;99.90
8338;DHT22;4206;48.634;9.516;2023-04-15T01:17:10;2.10;99.90
8338;DHT22;4206;48.634;9.516;2023-04-15T01:19:37;2.10;99.90
8338;DHT22;4206;48.634;9.516;2023-04-15T01:22:04;2.20;99.90
8338;DHT22;4206;48.634;9.516;2023-04-15T01:24:31;2.20;99.90
8338;DHT22;4206;48.634;9.516;2023-04-15T01:27:00;2.10;99.90
8338;DHT22;4206;48.634;9.516;2023-04-15T01:29:26;2.10;99.90
8338;DHT22;4206;48.634;9.516;2023-04-15T01:31:54;2.00;99.90
8338;DHT22;4206;48.634;9.516;2023-04-15T01:34:22;1.90;99.90
8338;DHT22;4206;48.634;9.516;2023-04-15T01:36:49;1.90;99.90
8338;DHT22;4206;48.634;9.516;2023-04-15T01:39:16;1.90;99.90
8338;DHT22;4206;48.634;9.516;2023-04-15T01:41:43;1.90;99.90
8338;DHT22;4206;48.634;9.516;2023-04-15T01:44:11;1.90;99.90
8338;DHT22;4206;48.634;9.516;2023-04-15T01:46:37;1.80;99.90
8338;DHT22;4206;48.634;9.516;2023-04-15T01:49:04;1.80;99.90
8338;DHT22;4206;48.634;9.516;2023-04-15T01:51:32;1.80;99.90
8338;DHT22;4206;48.634;9.516;2023-04-15T01:53:59;1.80;99.90
8338;DHT22;4206;48.634;9.516;2023-04-15T01:56:26;1.90;99.90
8338;DHT22;4206;48.634;9.516;2023-04-15T01:58:53;1.90;99.90
8338;DHT22;4206;48.634;9.516;2023-04-15T02:01:19;1.80;99.90
8338;DHT22;4206;48.634;9.516;2023-04-15T02:03:47;1.80;99.90
8338;DHT22;4206;48.634;9.516;2023-04-15T02:06:15;1.80;99.90
8338;DHT22;4206;48.634;9.516;2023-04-15T02:08:41;1.70;99.90
8338;DHT22;4206;48.634;9.516;2023-04-15T02:11:09;1.70;99.90
8338;DHT22;4206;48.634;9.516;2023-04-15T02:13:36;1.60;99.90
8338;DHT22;4206;48.634;9.516;2023-04-15T02:16:03;1.60;99.90
8338;DHT22;4206;48.634;9.516;2023-04-15T02:18:29;1.60;99.90
8338;DHT22;4206;48.634;9.516;2023-04-15T02:20:57;1.60;99.90
8338;DHT22;4206;48.634;9.516;2023-04-15T02:23:24;1.60;99.90
8338;DHT22;4206;48.634;9.516;2023-04-15T02:25:51;1.60;99.90
8338;DHT22;4206;48.634;9.516;2023-04-15T02:28:20;1.60;99.90
8338;DHT22;4206;48.634;9.516;2023-04-15T02:30:48;1.50;99.90
8338;DHT22;4206;48.634;9.516;2023-04-15T02:33:18;1.40;99.90
8338;DHT22;4206;48.634;9.516;2023-04-15T02:35:45;1.40;99.90
8338;DHT22;4206;48.634;9.516;2023-04-15T02:38:13;1.40;99.90
8338;DHT22;4206;48.634;9.516;2023-04-15T02:40:42;1.30;99.90
8338;DHT22;4206;48.634;9.516;2023-04-15T02:43:09;1.30;99.90
8338;DHT22;4206;48.634;9.516;2023-04-15T02:45:36;1.20;99.90
8338;DHT22;4206;48.634;9.516;2023-04-15T02:48:03;1.20;99.90
8338;DHT22;4206;48.634;9.516;2023-04-15T02:50:32;1.10;99.90
8338;DHT22;4206;48.634;9.516;2023-04-15T02:52:59;1.10;99.90
8338;DHT22;4206;48.634;9.516;2023-04-15T02:55:27;1.10;99.90
8338;DHT22;4206;48.634;9.516;2023-04-15T02:57:54;1.10;99.90
8338;DHT22;4206;48.634;9.516;2023-04-15T04:00:57;1.20;99.90
8338;DHT22;4206;48.634;9.516;2023-04-15T04:03:23;1.20;99.90
8338;DHT22;4206;48.634;9.516;2023-04-15T04:05:51;1.20;99.90
8338;DHT22;4206;48.634;9.516;2023-04-15T04:08:18;1.20;99.90
8338;DHT22;4206;48.634;9.516;2023-04-15T04:10:45;1.20;99.90
8338;DHT22;4206;48.634;9.516;2023-04-15T04:13:12;1.20;99.90
8338;DHT22;4206;48.634;9.516;2023-04-15T04:15:39;1.20;99.90
8338;DHT22;4206;48.634;9.516;2023-04-15T04:18:06;1.20;99.90
8338;DHT22;4206;48.634;9.516;2023-04-15T04:20:33;1.20;99.90
8338;DHT22;4206;48.634;9.516;2023-04-15T04:23:00;1.10;99.90
8338;DHT22;4206;48.634;9.516;2023-04-15T04:25:27;1.10;99.90
8338;DHT22;4206;48.634;9.516;2023-04-15T04:27:54;1.10;99.90
8338;DHT22;4206;48.634;9.516;2023-04-15T04:30:21;1.10;99.90
8338;DHT22;4206;48.634;9.516;2023-04-15T04:32:49;1.10;99.90
8338;DHT22;4206;48.634;9.516;2023-04-15T04:35:16;1.00;99.90
8338;DHT22;4206;48.634;9.516;2023-04-15T04:37:43;1.00;99.90
8338;DHT22;4206;48.634;9.516;2023-04-15T04:40:10;1.00;99.90
8338;DHT22;4206;48.634;9.516;2023-04-15T04:42:37;1.00;99.90
8338;DHT22;4206;48.634;9.516;2023-04-15T04:45:06;0.90;99.90
8338;DHT22;4206;48.634;9.516;2023-04-15T04:47:33;0.90;99.90
8338;DHT22;4206;48.634;9.516;2023-04-15T04:49:59;0.90;99.90
8338;DHT22;4206;48.634;9.516;2023-04-15T04:52:26;0.90;99.90
8338;DHT22;4206;48.634;9.516;2023-04-15T04:54:53;0.90;99.90
8338;DHT22;4206;48.634;9.516;2023-04-15T04:57:20;0.80;99.90
8338;DHT22;4206;48.634;9.516;2023-04-15T04:59:47;0.80;99.90
8338;DHT22;4206;48.634;9.516;2023-04-15T05:02:14;0.90;99.90
8338;DHT22;4206;48.634;9.516;2023-04-15T05:04:41;0.90;99.90
8338;DHT22;4206;48.634;9.516;2023-04-15T05:07:07;0.90;99.90
8338;DHT22;4206;48.634;9.516;2023-04-15T05:09:34;0.90;99.90
8338;DHT22;4206;48.634;9.516;2023-04-15T05:12:03;0.90;99.90
8338;DHT22;4206;48.634;9.516;2023-04-15T05:14:30;0.90;99.90
8338;DHT22;4206;48.634;9.516;2023-04-15T05:16:57;1.00;99.90
8338;DHT22;4206;48.634;9.516;2023-04-15T05:19:24;1.00;99.90
8338;DHT22;4206;48.634;9.516;2023-04-15T05:21:51;1.10;99.90
8338;DHT22;4206;48.634;9.516;2023-04-15T05:24:18;1.10;99.90
8338;DHT22;4206;48.634;9.516;2023-04-15T05:26:45;1.20;99.90
8338;DHT22;4206;48.634;9.516;2023-04-15T05:29:11;1.20;99.90
8338;DHT22;4206;48.634;9.516;2023-04-15T05:31:38;1.20;99.90
8338;DHT22;4206;48.634;9.516;2023-04-15T05:34:06;1.30;99.90
8338;DHT22;4206;48.634;9.516;2023-04-15T05:36:33;1.30;99.90
8338;DHT22;4206;48.634;9.516;2023-04-15T05:39:00;1.40;99.90
8338;DHT22;4206;48.634;9.516;2023-04-15T05:41:27;1.50;99.90
8338;DHT22;4206;48.634;9.516;2023-04-15T05:43:55;1.70;99.90
8338;DHT22;4206;48.634;9.516;2023-04-15T05:46:22;1.80;99.90
8338;DHT22;4206;48.634;9.516;2023-04-15T05:48:49;2.00;99.90
8338;DHT22;4206;48.634;9.516;2023-04-15T05:51:16;2.10;99.90
8338;DHT22;4206;48.634;9.516;2023-04-15T05:53:43;2.20;99.90
8338;DHT22;4206;48.634;9.516;2023-04-15T05:56:11;2.40;99.90
8338;DHT22;4206;48.634;9.516;2023-04-15T05:58:38;2.50;99.90
8338;DHT22;4206;48.634;9.516;2023-04-15T06:01:05;2.80;99.90
8338;DHT22;4206;48.634;9.516;2023-04-15T06:03:32;3.00;99.90
8338;DHT22;4206;48.634;9.516;2023-04-15T06:06:00;3.00;99.90
8338;DHT22;4206;48.634;9.516;2023-04-15T06:08:28;3.00;99.90
8338;DHT22;4206;48.634;9.516;2023-04-15T06:10:55;3.10;99.90
8338;DHT22;4206;48.634;9.516;2023-04-15T06:13:21;3.20;99.90
8338;DHT22;4206;48.634;9.516;2023-04-15T06:15:48;3.40;99.90
8338;DHT22;4206;48.634;9.516;2023-04-15T06:18:15;3.50;99.90
8338;DHT22;4206;48.634;9.516;2023-04-15T06:20:42;3.80;99.90
8338;DHT22;4206;48.634;9.516;2023-04-15T06:23:09;4.10;99.90
8338;DHT22;4206;48.634;9.516;2023-04-15T06:25:35;4.40;99.90
8338;DHT22;4206;48.634;9.516;2023-04-15T06:28:02;4.80;99.90
8338;DHT22;4206;48.634;9.516;2023-04-15T06:30:29;4.90;99.90
8338;DHT22;4206;48.634;9.516;2023-04-15T06:32:56;5.00;99.90
8338;DHT22;4206;48.634;9.516;2023-04-15T06:35:23;5.20;99.90
8338;DHT22;4206;48.634;9.516;2023-04-15T06:37:50;5.20;99.90
8338;DHT22;4206;48.634;9.516;2023-04-15T06:40:17;5.30;99.90
8338;DHT22;4206;48.634;9.516;2023-04-15T06:42:44;5.40;99.90
8338;DHT22;4206;48.634;9.516;2023-04-15T06:45:11;5.50;99.90
8338;DHT22;4206;48.634;9.516;2023-04-15T06:47:37;5.90;99.90
8338;DHT22;4206;48.634;9.516;2023-04-15T06:50:04;6.10;99.90
8338;DHT22;4206;48.634;9.516;2023-04-15T06:52:32;6.30;99.90
8338;DHT22;4206;48.634;9.516;2023-04-15T06:54:59;6.50;99.90
8338;DHT22;4206;48.634;9.516;2023-04-15T06:57:26;6.60;99.90
8338;DHT22;4206;48.634;9.516;2023-04-15T06:59:54;6.40;99.90
8338;DHT22;4206;48.634;9.516;2023-04-15T07:02:21;6.60;99.90
8338;DHT22;4206;48.634;9.516;2023-04-15T07:04:48;6.80;99.90
8338;DHT22;4206;48.634;9.516;2023-04-15T07:07:15;6.90;99.90
8338;DHT22;4206;48.634;9.516;2023-04-15T07:09:43;7.20;99.90
8338;DHT22;4206;48.634;9.516;2023-04-15T07:12:10;7.30;99.90
8338;DHT22;4206;48.634;9.516;2023-04-15T07:14:37;7.70;99.90
8338;DHT22;4206;48.634;9.516;2023-04-15T07:17:03;7.70;99.90
8338;DHT22;4206;48.634;9.516;2023-04-15T07:19:31;8.10;99.90
8338;DHT22;4206;48.634;9.516;2023-04-15T07:21:57;8.40;99.90
8338;DHT22;4206;48.634;9.516;2023-04-15T07:24:24;8.40;99.90
8338;DHT22;4206;48.634;9.516;2023-04-15T07:26:53;8.60;99.90
8338;DHT22;4206;48.634;9.516;2023-04-15T07:29:25;8.70;99.90
8338;DHT22;4206;48.634;9.516;2023-04-15T07:31:52;8.40;99.90
8338;DHT22;4206;48.634;9.516;2023-04-15T07:34:19;8.50;99.90
8338;DHT22;4206;48.634;9.516;2023-04-15T07:36:46;8.50;99.90
8338;DHT22;4206;48.634;9.516;2023-04-15T07:39:17;8.70;99.90
8338;DHT22;4206;48.634;9.516;2023-04-15T07:41:44;8.70;99.90
8338;DHT22;4206;48.634;9.516;2023-04-15T07:44:12;9.00;99.90
8338;DHT22;4206;48.634;9.516;2023-04-15T07:46:38;8.90;99.90
8338;DHT22;4206;48.634;9.516;2023-04-15T07:49:06;9.20;99.90
8338;DHT22;4206;48.634;9.516;2023-04-15T07:51:33;9.40;99.90
8338;DHT22;4206;48.634;9.516;2023-04-15T07:54:00;9.90;99.90
8338;DHT22;4206;48.634;9.516;2023-04-15T07:56:26;9.90;99.90
8338;DHT22;4206;48.634;9.516;2023-04-15T07:58:53;10.70;99.90
8338;DHT22;4206;48.634;9.516;2023-04-15T08:01:20;11.10;99.90
8338;DHT22;4206;48.634;9.516;2023-04-15T08:03:47;12.10;99.90
8338;DHT22;4206;48.634;9.516;2023-04-15T08:06:14;12.50;99.90
8338;DHT22;4206;48.634;9.516;2023-04-15T08:08:41;12.80;99.90
8338;DHT22;4206;48.634;9.516;2023-04-15T08:11:08;13.40;99.90
8338;DHT22;4206;48.634;9.516;2023-04-15T08:13:35;13.80;99.90
8338;DHT22;4206;48.634;9.516;2023-04-15T08:18:46;14.60;99.90
8338;DHT22;4206;48.634;9.516;2023-04-15T08:21:13;14.40;99.90
8338;DHT22;4206;48.634;9.516;2023-04-15T08:23:40;15.10;99.90
8338;DHT22;4206;48.634;9.516;2023-04-15T08:26:08;15.80;99.90
8338;DHT22;4206;48.634;9.516;2023-04-15T08:28:39;16.20;99.90
8338;DHT22;4206;48.634;9.516;2023-04-15T08:31:07;17.00;99.90
8338;DHT22;4206;48.634;9.516;2023-04-15T08:33:35;17.70;99.90
8338;DHT22;4206;48.634;9.516;2023-04-15T08:36:02;18.30;99.90
8338;DHT22;4206;48.634;9.516;2023-04-15T08:38:30;19.90;99.90
8338;DHT22;4206;48.634;9.516;2023-04-15T08:40:59;20.20;99.90
8338;DHT22;4206;48.634;9.516;2023-04-15T08:43:32;19.60;99.90
8338;DHT22;4206;48.634;9.516;2023-04-15T08:45:59;19.50;99.90
8338;DHT22;4206;48.634;9.516;2023-04-15T08:48:29;20.00;99.40
8338;DHT22;4206;48.634;9.516;2023-04-15T08:50:58;19.60;97.80
8338;DHT22;4206;48.634;9.516;2023-04-15T08:53:27;19.50;98.40
8338;DHT22;4206;48.634;9.516;2023-04-15T08:55:56;18.80;98.30
8338;DHT22;4206;48.634;9.516;2023-04-15T08:58:24;19.30;98.00
8338;DHT22;4206;48.634;9.516;2023-04-15T09:00:52;19.10;96.70
8338;DHT22;4206;48.634;9.516;2023-04-15T09:03:19;20.40;95.00
8338;DHT22;4206;48.634;9.516;2023-04-15T09:05:49;20.60;95.60
8338;DHT22;4206;48.634;9.516;2023-04-15T09:08:18;20.60;93.90
8338;DHT22;4206;48.634;9.516;2023-04-15T09:10:45;20.20;93.90
8338;DHT22;4206;48.634;9.516;2023-04-15T09:13:13;19.10;95.20
8338;DHT22;4206;48.634;9.516;2023-04-15T09:15:39;18.40;95.70
8338;DHT22;4206;48.634;9.516;2023-04-15T09:18:07;18.00;95.30
8338;DHT22;4206;48.634;9.516;2023-04-15T09:20:41;18.20;95.60
8338;DHT22;4206;48.634;9.516;2023-04-15T09:23:15;17.70;96.10
8338;DHT22;4206;48.634;9.516;2023-04-15T09:25:43;17.60;94.80
8338;DHT22;4206;48.634;9.516;2023-04-15T09:28:10;17.10;95.80
8338;DHT22;4206;48.634;9.516;2023-04-15T09:30:37;16.90;96.80
8338;DHT22;4206;48.634;9.516;2023-04-15T09:33:04;16.70;97.20
8338;DHT22;4206;48.634;9.516;2023-04-15T09:35:34;16.00;97.60
8338;DHT22;4206;48.634;9.516;2023-04-15T09:38:04;15.90;98.00
8338;DHT22;4206;48.634;9.516;2023-04-15T09:40:39;15.60;98.50
8338;DHT22;4206;48.634;9.516;2023-04-15T09:43:08;15.60;98.10
8338;DHT22;4206;48.634;9.516;2023-04-15T09:45:35;15.70;99.10
8338;DHT22;4206;48.634;9.516;2023-04-15T09:50:44;16.50;97.40
8338;DHT22;4206;48.634;9.516;2023-04-15T09:53:16;17.90;97.00
8338;DHT22;4206;48.634;9.516;2023-04-15T09:55:53;19.30;95.20
8338;DHT22;4206;48.634;9.516;2023-04-15T09:58:22;20.80;95.00
8338;DHT22;4206;48.634;9.516;2023-04-15T10:00:50;21.50;92.70
8338;DHT22;4206;48.634;9.516;2023-04-15T10:03:20;21.80;93.90
8338;DHT22;4206;48.634;9.516;2023-04-15T10:05:49;20.40;94.70
8338;DHT22;4206;48.634;9.516;2023-04-15T10:08:20;19.90;92.80
8338;DHT22;4206;48.634;9.516;2023-04-15T10:10:48;19.80;92.90
8338;DHT22;4206;48.634;9.516;2023-04-15T10:13:18;18.90;92.60
8338;DHT22;4206;48.634;9.516;2023-04-15T10:15:51;19.60;93.30
8338;DHT22;4206;48.634;9.516;2023-04-15T10:18:24;19.60;93.30
8338;DHT22;4206;48.634;9.516;2023-04-15T10:20:52;19.80;92.20
8338;DHT22;4206;48.634;9.516;2023-04-15T10:23:21;19.80;92.80
8338;DHT22;4206;48.634;9.516;2023-04-15T10:25:48;19.20;92.70
8338;DHT22;4206;48.634;9.516;2023-04-15T10:28:17;19.40;93.10
8338;DHT22;4206;48.634;9.516;2023-04-15T10:30:45;20.20;93.20
8338;DHT22;4206;48.634;9.516;2023-04-15T10:33:13;20.30;91.20
8338;DHT22;4206;48.634;9.516;2023-04-15T10:35:43;19.30;90.60
8338;DHT22;4206;48.634;9.516;2023-04-15T10:41:19;19.10;90.30
8338;DHT22;4206;48.634;9.516;2023-04-15T10:43:51;19.10;90.60
8338;DHT22;4206;48.634;9.516;2023-04-15T10:49:12;18.60;91.10
8338;DHT22;4206;48.634;9.516;2023-04-15T10:51:41;17.70;92.10
8338;DHT22;4206;48.634;9.516;2023-04-15T10:54:13;17.20;92.30
8338;DHT22;4206;48.634;9.516;2023-04-15T10:56:41;17.20;92.60
8338;DHT22;4206;48.634;9.516;2023-04-15T10:59:09;17.10;92.30
8338;DHT22;4206;48.634;9.516;2023-04-15T11:01:53;16.90;91.60
8338;DHT22;4206;48.634;9.516;2023-04-15T11:07:37;17.70;90.80
8338;DHT22;4206;48.634;9.516;2023-04-15T11:12:51;17.90;90.50
8338;DHT22;4206;48.634;9.516;2023-04-15T11:15:34;17.50;90.90
8338;DHT22;4206;48.634;9.516;2023-04-15T11:20:39;16.70;91.70
8338;DHT22;4206;48.634;9.516;2023-04-15T11:23:07;16.90;92.40
8338;DHT22;4206;48.634;9.516;2023-04-15T11:25:42;16.50;92.40
8338;DHT22;4206;48.634;9.516;2023-04-15T11:28:11;16.30;92.90
8338;DHT22;4206;48.634;9.516;2023-04-15T11:30:39;15.90;92.30
8338;DHT22;4206;48.634;9.516;2023-04-15T11:33:08;15.80;92.70
8338;DHT22;4206;48.634;9.516;2023-04-15T11:35:35;16.00;93.70
8338;DHT22;4206;48.634;9.516;2023-04-15T11:38:04;15.90;93.90
8338;DHT22;4206;48.634;9.516;2023-04-15T11:40:31;16.30;93.30
8338;DHT22;4206;48.634;9.516;2023-04-15T11:43:16;16.50;93.10
8338;DHT22;4206;48.634;9.516;2023-04-15T11:45:54;17.10;92.50
8338;DHT22;4206;48.634;9.516;2023-04-15T11:48:24;16.60;93.10
8338;DHT22;4206;48.634;9.516;2023-04-15T11:50:54;16.40;93.80
8338;DHT22;4206;48.634;9.516;2023-04-15T11:53:22;16.70;94.50
8338;DHT22;4206;48.634;9.516;2023-04-15T11:55:52;17.30;93.30
8338;DHT22;4206;48.634;9.516;2023-04-15T11:58:24;18.30;92.50
8338;DHT22;4206;48.634;9.516;2023-04-15T12:00:56;18.30;91.80
8338;DHT22;4206;48.634;9.516;2023-04-15T12:03:39;18.50;90.40
8338;DHT22;4206;48.634;9.516;2023-04-15T12:09:02;19.20;88.90
8338;DHT22;4206;48.634;9.516;2023-04-15T12:11:33;18.50;90.10
8338;DHT22;4206;48.634;9.516;2023-04-15T12:14:08;18.70;90.10
8338;DHT22;4206;48.634;9.516;2023-04-15T12:16:38;19.00;88.90
8338;DHT22;4206;48.634;9.516;2023-04-15T12:19:17;19.60;88.60
8338;DHT22;4206;48.634;9.516;2023-04-15T12:21:46;18.90;86.20
8338;DHT22;4206;48.634;9.516;2023-04-15T12:24:13;18.60;87.50
8338;DHT22;4206;48.634;9.516;2023-04-15T12:26:53;17.90;88.10
8338;DHT22;4206;48.634;9.516;2023-04-15T12:29:26;17.60;87.50
8338;DHT22;4206;48.634;9.516;2023-04-15T12:31:56;17.20;88.20
8338;DHT22;4206;48.634;9.516;2023-04-15T12:34:29;16.40;90.10
8338;DHT22;4206;48.634;9.516;2023-04-15T12:36:58;15.90;91.60
8338;DHT22;4206;48.634;9.516;2023-04-15T12:39:27;15.20;92.40
8338;DHT22;4206;48.634;9.516;2023-04-15T12:41:56;14.70;92.80
8338;DHT22;4206;48.634;9.516;2023-04-15T12:44:24;14.30;92.80
8338;DHT22;4206;48.634;9.516;2023-04-15T12:46:51;13.90;95.20
8338;DHT22;4206;48.634;9.516;2023-04-15T12:49:23;13.50;98.90
8338;DHT22;4206;48.634;9.516;2023-04-15T12:51:52;13.40;99.10
8338;DHT22;4206;48.634;9.516;2023-04-15T12:54:19;13.30;99.90
8338;DHT22;4206;48.634;9.516;2023-04-15T12:56:48;13.10;99.90
8338;DHT22;4206;48.634;9.516;2023-04-15T12:59:16;12.80;99.90
8338;DHT22;4206;48.634;9.516;2023-04-15T13:01:45;12.60;99.90
8338;DHT22;4206;48.634;9.516;2023-04-15T13:04:13;12.20;99.90
8338;DHT22;4206;48.634;9.516;2023-04-15T13:06:40;12.10;99.90
8338;DHT22;4206;48.634;9.516;2023-04-15T13:09:07;11.90;99.90
8338;DHT22;4206;48.634;9.516;2023-04-15T13:11:34;11.60;99.90
8338;DHT22;4206;48.634;9.516;2023-04-15T13:14:04;11.60;99.90
8338;DHT22;4206;48.634;9.516;2023-04-15T13:16:32;11.40;99.90
8338;DHT22;4206;48.634;9.516;2023-04-15T13:18:59;11.20;99.90
8338;DHT22;4206;48.634;9.516;2023-04-15T13:21:27;11.00;99.90
8338;DHT22;4206;48.634;9.516;2023-04-15T13:23:54;11.00;99.90
8338;DHT22;4206;48.634;9.516;2023-04-15T13:26:21;10.90;99.90
8338;DHT22;4206;48.634;9.516;2023-04-15T13:28:48;10.90;99.90
8338;DHT22;4206;48.634;9.516;2023-04-15T13:31:15;10.80;99.90
8338;DHT22;4206;48.634;9.516;2023-04-15T13:33:42;10.70;99.90
8338;DHT22;4206;48.634;9.516;2023-04-15T13:36:08;10.60;99.90
8338;DHT22;4206;48.634;9.516;2023-04-15T13:38:35;10.50;99.90
8338;DHT22;4206;48.634;9.516;2023-04-15T13:41:02;10.50;99.90
8338;DHT22;4206;48.634;9.516;2023-04-15T13:43:29;10.70;99.90
8338;DHT22;4206;48.634;9.516;2023-04-15T13:45:57;10.80;99.90
8338;DHT22;4206;48.634;9.516;2023-04-15T13:48:24;11.00;99.90
8338;DHT22;4206;48.634;9.516;2023-04-15T13:50:51;11.10;99.90
8338;DHT22;4206;48.634;9.516;2023-04-15T13:53:17;11.10;99.90
8338;DHT22;4206;48.634;9.516;2023-04-15T13:55:44;11.10;99.90
8338;DHT22;4206;48.634;9.516;2023-04-15T13:58:11;11.00;99.90
8338;DHT22;4206;48.634;9.516;2023-04-15T14:00:38;11.20;99.90
8338;DHT22;4206;48.634;9.516;2023-04-15T14:03:06;11.40;99.90
8338;DHT22;4206;48.634;9.516;2023-04-15T14:05:33;11.50;99.90
8338;DHT22;4206;48.634;9.516;2023-04-15T14:08:00;11.70;99.90
8338;DHT22;4206;48.634;9.516;2023-04-15T14:10:26;11.80;99.90
8338;DHT22;4206;48.634;9.516;2023-04-15T14:12:53;11.70;99.90
8338;DHT22;4206;48.634;9.516;2023-04-15T14:15:20;11.80;99.90
8338;DHT22;4206;48.634;9.516;2023-04-15T14:17:47;11.70;99.90
8338;DHT22;4206;48.634;9.516;2023-04-15T14:20:14;11.60;99.90
8338;DHT22;4206;48.634;9.516;2023-04-15T14:22:43;11.50;99.90
8338;DHT22;4206;48.634;9.516;2023-04-15T14:25:09;11.50;99.90
8338;DHT22;4206;48.634;9.516;2023-04-15T14:27:48;11.40;99.90
8338;DHT22;4206;48.634;9.516;2023-04-15T14:30:16;11.30;99.90
8338;DHT22;4206;48.634;9.516;2023-04-15T14:32:43;11.20;99.90
8338;DHT22;4206;48.634;9.516;2023-04-15T14:35:10;11.10;99.90
8338;DHT22;4206;48.634;9.516;2023-04-15T14:37:36;11.20;99.90
8338;DHT22;4206;48.634;9.516;2023-04-15T14:40:04;11.10;99.90
8338;DHT22;4206;48.634;9.516;2023-04-15T14:42:31;11.00;99.90
8338;DHT22;4206;48.634;9.516;2023-04-15T14:44:58;11.00;99.90
8338;DHT22;4206;48.634;9.516;2023-04-15T14:47:25;11.00;99.90
8338;DHT22;4206;48.634;9.516;2023-04-15T14:49:52;11.10;99.90
8338;DHT22;4206;48.634;9.516;2023-04-15T14:52:18;11.10;99.90
8338;DHT22;4206;48.634;9.516;2023-04-15T14:54:45;11.10;99.90
8338;DHT22;4206;48.634;9.516;2023-04-15T14:57:12;11.20;99.90
8338;DHT22;4206;48.634;9.516;2023-04-15T14:59:39;11.10;99.90
8338;DHT22;4206;48.634;9.516;2023-04-15T15:02:07;11.10;99.90
8338;DHT22;4206;48.634;9.516;2023-04-15T15:04:34;11.20;99.90
8338;DHT22;4206;48.634;9.516;2023-04-15T15:07:01;11.10;99.90
8338;DHT22;4206;48.634;9.516;2023-04-15T15:09:28;11.30;99.90
8338;DHT22;4206;48.634;9.516;2023-04-15T15:11:55;11.40;99.90
8338;DHT22;4206;48.634;9.516;2023-04-15T15:14:23;11.40;99.90
8338;DHT22;4206;48.634;9.516;2023-04-15T15:16:50;11.20;99.90
8338;DHT22;4206;48.634;9.516;2023-04-15T15:19:17;11.30;99.90
8338;DHT22;4206;48.634;9.516;2023-04-15T15:21:43;11.20;99.90
8338;DHT22;4206;48.634;9.516;2023-04-15T15:24:11;11.00;99.90
8338;DHT22;4206;48.634;9.516;2023-04-15T15:26:38;11.00;99.90
8338;DHT22;4206;48.634;9.516;2023-04-15T15:29:05;10.80;99.90
8338;DHT22;4206;48.634;9.516;2023-04-15T15:31:34;10.80;99.90
8338;DHT22;4206;48.634;9.516;2023-04-15T15:34:01;10.70;99.90
8338;DHT22;4206;48.634;9.516;2023-04-15T15:36:29;10.50;99.90
8338;DHT22;4206;48.634;9.516;2023-04-15T15:38:57;10.40;99.90
8338;DHT22;4206;48.634;9.516;2023-04-15T15:41:25;10.40;99.90
8338;DHT22;4206;48.634;9.516;2023-04-15T15:43:53;10.40;99.90
8338;DHT22;4206;48.634;9.516;2023-04-15T15:46:19;10.40;99.90
8338;DHT22;4206;48.634;9.516;2023-04-15T15:48:46;10.30;99.90
8338;DHT22;4206;48.634;9.516;2023-04-15T15:51:13;10.30;99.90
8338;DHT22;4206;48.634;9.516;2023-04-15T15:53:40;10.30;99.90
8338;DHT22;4206;48.634;9.516;2023-04-15T15:56:07;10.10;99.90
8338;DHT22;4206;48.634;9.516;2023-04-15T15:58:33;10.10;99.90
8338;DHT22;4206;48.634;9.516;2023-04-15T16:01:00;10.20;99.90
8338;DHT22;4206;48.634;9.516;2023-04-15T16:03:28;10.10;99.90
8338;DHT22;4206;48.634;9.516;2023-04-15T16:05:55;10.00;99.90
8338;DHT22;4206;48.634;9.516;2023-04-15T16:08:21;9.90;99.90
8338;DHT22;4206;48.634;9.516;2023-04-15T16:10:48;9.90;99.90
8338;DHT22;4206;48.634;9.516;2023-04-15T16:13:15;9.80;99.90
8338;DHT22;4206;48.634;9.516;2023-04-15T16:15:42;9.80;99.90
8338;DHT22;4206;48.634;9.516;2023-04-15T16:18:09;9.90;99.90
8338;DHT22;4206;48.634;9.516;2023-04-15T16:20:37;9.80;99.90
8338;DHT22;4206;48.634;9.516;2023-04-15T16:23:11;9.80;99.90
8338;DHT22;4206;48.634;9.516;2023-04-15T16:25:40;9.80;99.90
8338;DHT22;4206;48.634;9.516;2023-04-15T16:28:08;9.70;99.90
8338;DHT22;4206;48.634;9.516;2023-04-15T16:30:51;9.70;99.90
8338;DHT22;4206;48.634;9.516;2023-04-15T16:33:17;9.80;99.90
8338;DHT22;4206;48.634;9.516;2023-04-15T16:35:44;9.60;99.90
8338;DHT22;4206;48.634;9.516;2023-04-15T16:38:11;9.60;99.90
8338;DHT22;4206;48.634;9.516;2023-04-15T16:40:38;9.50;99.90
8338;DHT22;4206;48.634;9.516;2023-04-15T16:43:05;9.40;99.90
8338;DHT22;4206;48.634;9.516;2023-04-15T16:45:33;9.30;99.90
8338;DHT22;4206;48.634;9.516;2023-04-15T16:48:00;9.20;99.90
8338;DHT22;4206;48.634;9.516;2023-04-15T16:50:27;9.20;99.90
8338;DHT22;4206;48.634;9.516;2023-04-15T16:52:54;9.10;99.90
8338;DHT22;4206;48.634;9.516;2023-04-15T16:55:21;9.00;99.90
8338;DHT22;4206;48.634;9.516;2023-04-15T16:57:48;8.90;99.90
8338;DHT22;4206;48.634;9.516;2023-04-15T17:00:30;8.80;99.90
8338;DHT22;4206;48.634;9.516;2023-04-15T17:02:59;8.70;99.90
8338;DHT22;4206;48.634;9.516;2023-04-15T17:05:26;8.60;99.90
8338;DHT22;4206;48.634;9.516;2023-04-15T17:07:53;8.50;99.90
8338;DHT22;4206;48.634;9.516;2023-04-15T17:10:21;8.50;99.90
8338;DHT22;4206;48.634;9.516;2023-04-15T17:12:48;8.40;99.90
8338;DHT22;4206;48.634;9.516;2023-04-15T17:15:18;8.40;99.90
8338;DHT22;4206;48.634;9.516;2023-04-15T17:17:45;8.40;99.90
8338;DHT22;4206;48.634;9.516;2023-04-15T17:20:12;8.30;99.90
8338;DHT22;4206;48.634;9.516;2023-04-15T17:22:39;8.20;99.90
8338;DHT22;4206;48.634;9.516;2023-04-15T17:25:06;8.20;99.90
8338;DHT22;4206;48.634;9.516;2023-04-15T17:27:33;8.20;99.90
8338;DHT22;4206;48.634;9.516;2023-04-15T17:30:00;8.30;99.90
8338;DHT22;4206;48.634;9.516;2023-04-15T17:32:27;8.10;99.90
8338;DHT22;4206;48.634;9.516;2023-04-15T17:34:57;8.10;99.90
8338;DHT22;4206;48.634;9.516;2023-04-15T17:37:24;8.10;99.90